createdAt,value
2019-02-20T17:47:16.607Z,998.83
2019-02-20T17:48:16.226Z,998.82
2019-02-20T17:49:16.216Z,998.73
2019-02-20T17:50:16.267Z,998.77
2019-02-20T17:51:16.200Z,998.79
2019-02-20T17:52:16.187Z,998.76
2019-02-20T17:53:16.185Z,998.75
2019-02-20T17:54:17.232Z,998.79
2019-02-20T17:55:16.152Z,998.80
2019-02-20T17:56:16.140Z,998.77
2019-02-20T17:57:16.139Z,998.79
2019-02-20T17:58:16.131Z,998.83
2019-02-20T17:59:16.108Z,998.83
2019-02-20T18:00:16.110Z,998.86
2019-02-20T18:01:16.086Z,998.91
2019-02-20T18:02:16.080Z,998.91
2019-02-20T18:03:16.078Z,998.93
2019-02-20T18:04:16.055Z,998.90
2019-02-20T18:05:16.046Z,998.90
2019-02-20T18:06:16.036Z,998.88
2019-02-20T18:07:17.204Z,998.94
2019-02-20T18:08:16.024Z,998.90
2019-02-20T18:09:16.003Z,998.95
2019-02-20T18:10:15.992Z,998.92
2019-02-20T18:11:15.986Z,998.97
2019-02-20T18:12:15.971Z,999.01
2019-02-20T18:13:15.974Z,998.98
2019-02-20T18:14:15.950Z,998.93
2019-02-20T18:15:15.948Z,998.98
2019-02-20T18:16:15.925Z,999.01
2019-02-20T18:17:15.919Z,998.96
2019-02-20T18:18:15.916Z,999.01
2019-02-20T18:19:15.950Z,999.02
2019-02-20T18:20:15.882Z,998.99
2019-02-20T18:21:15.879Z,999.00
2019-02-20T18:22:15.862Z,998.97
2019-02-20T18:23:15.861Z,999.01
2019-02-20T18:24:15.846Z,998.98
2019-02-20T18:25:15.827Z,998.98
2019-02-20T18:26:15.816Z,999.04
2019-02-20T18:27:15.811Z,999.01
2019-02-20T18:28:24.127Z,999.08
2019-02-20T18:29:16.788Z,999.02
2019-02-20T18:30:15.775Z,999.02
2019-02-20T18:31:15.767Z,999.05
2019-02-20T18:32:15.757Z,999.05
2019-02-20T18:33:15.757Z,999.09
2019-02-20T18:34:15.733Z,999.06
2019-02-20T18:35:15.727Z,999.05
2019-02-20T18:36:15.715Z,999.11
2019-02-20T18:37:15.700Z,999.06
2019-02-20T18:38:15.711Z,999.12
2019-02-20T18:39:15.688Z,999.08
2019-02-20T18:40:15.679Z,999.16
2019-02-20T18:41:15.655Z,999.11
2019-02-20T18:42:15.652Z,999.15
2019-02-20T18:43:15.670Z,999.14
2019-02-20T18:44:15.636Z,999.14
2019-02-20T18:45:15.628Z,999.16
2019-02-20T18:46:15.601Z,999.13
2019-02-20T18:47:15.593Z,999.13
2019-02-20T18:48:15.605Z,999.14
2019-02-20T18:49:15.580Z,999.19
2019-02-20T18:50:15.587Z,999.20
2019-02-20T18:51:15.548Z,999.22
2019-02-20T18:52:15.539Z,999.19
2019-02-20T18:53:15.561Z,999.18
2019-02-20T18:54:15.527Z,999.16
2019-02-20T18:55:15.508Z,999.20
2019-02-20T18:56:15.492Z,999.18
2019-02-20T18:57:15.487Z,999.26
2019-02-20T18:58:15.491Z,999.27
2019-02-20T18:59:15.461Z,999.29
2019-02-20T19:00:15.449Z,999.30
2019-02-20T19:01:15.451Z,999.28
2019-02-20T19:02:15.447Z,999.33
2019-02-20T19:03:15.447Z,999.37
2019-02-20T19:04:15.410Z,999.37
2019-02-20T19:05:15.400Z,999.37
2019-02-20T19:06:15.402Z,999.30
2019-02-20T19:07:15.384Z,999.32
2019-02-20T19:08:15.374Z,999.34
2019-02-20T19:09:15.374Z,999.31
2019-02-20T19:10:15.380Z,999.40
2019-02-20T19:11:15.344Z,999.40
2019-02-20T19:12:15.322Z,999.36
2019-02-20T19:13:15.363Z,999.41
2019-02-20T19:14:15.338Z,999.39
2019-02-20T19:15:15.297Z,999.52
2019-02-20T19:16:15.298Z,999.49
2019-02-20T19:17:15.273Z,999.46
2019-02-20T19:18:15.330Z,999.51
2019-02-20T19:19:15.266Z,999.49
2019-02-20T19:20:15.257Z,999.55
2019-02-20T19:21:15.258Z,999.52
2019-02-20T19:22:15.255Z,999.53
2019-02-20T19:23:15.206Z,999.53
2019-02-20T19:24:15.219Z,999.54
2019-02-20T19:25:15.190Z,999.50
2019-02-20T19:26:15.171Z,999.50
2019-02-20T19:27:15.162Z,999.42
2019-02-20T19:28:15.679Z,999.47
2019-02-20T19:29:15.169Z,999.55
2019-02-20T19:30:15.148Z,999.54
2019-02-20T19:31:15.122Z,999.56
2019-02-20T19:32:15.121Z,999.59
2019-02-20T19:33:15.147Z,999.60
2019-02-20T19:34:15.129Z,999.62
2019-02-20T19:35:15.091Z,999.64
2019-02-20T19:36:15.086Z,999.63
2019-02-20T19:37:15.143Z,999.65
2019-02-20T19:38:15.047Z,999.61
2019-02-20T19:39:15.106Z,999.59
2019-02-20T19:40:15.045Z,999.60
2019-02-20T19:41:15.017Z,999.58
2019-02-20T19:42:15.029Z,999.63
2019-02-20T19:43:14.993Z,999.61
2019-02-20T19:44:15.093Z,999.64
2019-02-20T19:45:14.980Z,999.63
2019-02-20T19:46:16.389Z,999.63
2019-02-20T19:47:14.951Z,999.54
2019-02-20T19:48:14.943Z,999.65
2019-02-20T19:49:14.961Z,999.62
2019-02-20T19:50:14.937Z,999.61
2019-02-20T19:51:14.942Z,999.59
2019-02-20T19:52:14.929Z,999.65
2019-02-20T19:53:14.886Z,999.65
2019-02-20T19:54:14.889Z,999.61
2019-02-20T19:55:14.891Z,999.63
2019-02-20T19:56:14.871Z,999.62
2019-02-20T19:57:14.864Z,999.63
2019-02-20T19:58:14.836Z,999.63
2019-02-20T19:59:14.867Z,999.67
2019-02-20T20:00:14.839Z,999.70
2019-02-20T20:01:15.322Z,999.68
2019-02-20T20:02:14.788Z,999.67
2019-02-20T20:03:14.800Z,999.69
2019-02-20T20:04:14.803Z,999.73
2019-02-20T20:05:14.774Z,999.69
2019-02-20T20:06:14.745Z,999.75
2019-02-20T20:07:14.768Z,999.71
2019-02-20T20:08:14.756Z,999.75
2019-02-20T20:09:14.762Z,999.83
2019-02-20T20:10:14.722Z,999.78
2019-02-20T20:11:14.726Z,999.81
2019-02-20T20:12:14.686Z,999.79
2019-02-20T20:13:14.673Z,999.83
2019-02-20T20:14:14.674Z,999.85
2019-02-20T20:15:14.893Z,999.82
2019-02-20T20:16:14.652Z,999.85
2019-02-20T20:17:14.701Z,999.85
2019-02-20T20:18:14.622Z,999.89
2019-02-20T20:19:14.656Z,999.89
2019-02-20T20:20:14.599Z,999.86
2019-02-20T20:21:14.618Z,999.93
2019-02-20T20:22:14.575Z,999.92
2019-02-20T20:23:14.575Z,999.89
2019-02-20T20:24:14.565Z,999.88
2019-02-20T20:25:14.544Z,999.88
2019-02-20T20:26:14.532Z,999.89
2019-02-20T20:27:14.533Z,999.89
2019-02-20T20:28:14.527Z,999.82
2019-02-20T20:29:14.516Z,999.86
2019-02-20T20:30:14.495Z,999.87
2019-02-20T20:31:14.484Z,999.91
2019-02-20T20:32:14.502Z,999.90
2019-02-20T20:33:14.494Z,999.93
2019-02-20T20:34:14.501Z,999.95
2019-02-20T20:35:15.698Z,999.95
2019-02-20T20:36:14.499Z,999.91
2019-02-20T20:37:14.702Z,999.93
2019-02-20T20:38:14.407Z,999.94
2019-02-20T20:39:14.510Z,999.95
2019-02-20T20:40:14.399Z,999.98
2019-02-20T20:41:14.376Z,999.95
2019-02-20T20:42:14.366Z,999.98
2019-02-20T20:43:14.352Z,1000.03
2019-02-20T20:44:14.344Z,1000.00
2019-02-20T20:45:14.382Z,999.99
2019-02-20T20:46:14.325Z,1000.01
2019-02-20T20:47:14.311Z,1000.04
2019-02-20T20:48:14.303Z,1000.02
2019-02-20T20:49:14.294Z,1000.09
2019-02-20T20:50:14.294Z,1000.07
2019-02-20T20:51:14.284Z,1000.08
2019-02-20T20:52:14.257Z,1000.07
2019-02-20T20:53:14.245Z,1000.14
2019-02-20T20:54:14.235Z,1000.10
2019-02-20T20:55:14.251Z,1000.09
2019-02-20T20:56:14.212Z,1000.10
2019-02-20T20:57:14.217Z,1000.13
2019-02-20T20:58:14.197Z,1000.11
2019-02-20T20:59:17.708Z,1000.06
2019-02-20T21:00:14.185Z,1000.12
2019-02-20T21:01:14.168Z,1000.08
2019-02-20T21:02:14.173Z,1000.14
2019-02-20T21:03:14.138Z,1000.09
2019-02-20T21:04:14.346Z,1000.10
2019-02-20T21:05:14.134Z,1000.09
2019-02-20T21:06:14.114Z,1000.12
2019-02-20T21:07:14.100Z,1000.12
2019-02-20T21:08:14.091Z,1000.15
2019-02-20T21:09:14.077Z,1000.12
2019-02-20T21:10:14.078Z,1000.18
2019-02-20T21:11:14.055Z,1000.15
2019-02-20T21:12:14.047Z,1000.17
2019-02-20T21:13:14.033Z,1000.20
2019-02-20T21:14:14.050Z,1000.22
2019-02-20T21:15:14.027Z,1000.20
2019-02-20T21:16:14.000Z,1000.19
2019-02-20T21:17:15.937Z,1000.21
2019-02-20T21:18:13.981Z,1000.16
2019-02-20T21:19:21.223Z,1000.20
2019-02-20T21:20:14.973Z,1000.17
2019-02-20T21:21:14.002Z,1000.17
2019-02-20T21:22:13.942Z,1000.20
2019-02-20T21:23:13.963Z,1000.17
2019-02-20T21:24:13.914Z,1000.24
2019-02-20T21:25:14.607Z,1000.21
2019-02-20T21:26:13.895Z,1000.16
2019-02-20T21:27:13.884Z,1000.27
2019-02-20T21:28:13.873Z,1000.19
2019-02-20T21:29:13.911Z,1000.21
2019-02-20T21:30:13.884Z,1000.28
2019-02-20T21:31:13.844Z,1000.20
2019-02-20T21:32:13.845Z,1000.24
2019-02-20T21:33:13.834Z,1000.21
2019-02-20T21:34:13.813Z,1000.26
2019-02-20T21:35:13.804Z,1000.25
2019-02-20T21:36:13.829Z,1000.23
2019-02-20T21:37:13.781Z,1000.25
2019-02-20T21:38:13.772Z,1000.28
2019-02-20T21:39:13.762Z,1000.30
2019-02-20T21:40:13.748Z,1000.27
2019-02-20T21:41:13.747Z,1000.21
2019-02-20T21:42:13.726Z,1000.26
2019-02-20T21:43:13.730Z,1000.25
2019-02-20T21:44:13.712Z,1000.26
2019-02-20T21:45:13.697Z,1000.31
2019-02-20T21:46:13.699Z,1000.25
2019-02-20T21:47:13.680Z,1000.28
2019-02-20T21:48:15.350Z,1000.30
2019-02-20T21:49:15.176Z,1000.33
2019-02-20T21:50:13.810Z,1000.35
2019-02-20T21:51:13.645Z,1000.34
2019-02-20T21:52:13.751Z,1000.31
2019-02-20T21:53:13.611Z,1000.34
2019-02-20T21:54:13.604Z,1000.30
2019-02-20T21:55:13.590Z,1000.33
2019-02-20T21:56:13.722Z,1000.37
2019-02-20T21:57:13.648Z,1000.35
2019-02-20T21:58:13.731Z,1000.36
2019-02-20T21:59:13.633Z,1000.28
2019-02-20T22:00:13.566Z,1000.36
2019-02-20T22:01:13.540Z,1000.38
2019-02-20T22:02:13.515Z,1000.37
2019-02-20T22:03:13.712Z,1000.41
2019-02-20T22:04:13.509Z,1000.43
2019-02-20T22:05:13.514Z,1000.39
2019-02-20T22:06:13.497Z,1000.45
2019-02-20T22:07:13.483Z,1000.42
2019-02-20T22:08:13.455Z,1000.43
2019-02-20T22:09:13.442Z,1000.46
2019-02-20T22:10:13.435Z,1000.46
2019-02-20T22:11:13.424Z,1000.51
2019-02-20T22:12:13.560Z,1000.48
2019-02-20T22:13:13.392Z,1000.49
2019-02-20T22:14:13.382Z,1000.44
2019-02-20T22:15:14.768Z,1000.43
2019-02-20T22:16:13.400Z,1000.46
2019-02-20T22:17:13.349Z,1000.48
2019-02-20T22:18:13.342Z,1000.48
2019-02-20T22:19:13.329Z,1000.51
2019-02-20T22:20:13.319Z,1000.52
2019-02-20T22:21:13.310Z,1000.52
2019-02-20T22:22:13.308Z,1000.56
2019-02-20T22:23:13.287Z,1000.51
2019-02-20T22:24:13.282Z,1000.51
2019-02-20T22:25:13.284Z,1000.53
2019-02-20T22:26:13.255Z,1000.57
2019-02-20T22:27:13.256Z,1000.59
2019-02-20T22:28:13.234Z,1000.53
2019-02-20T22:29:13.220Z,1000.55
2019-02-20T22:30:13.214Z,1000.54
2019-02-20T22:31:13.258Z,1000.55
2019-02-20T22:32:13.200Z,1000.52
2019-02-20T22:33:13.181Z,1000.55
2019-02-20T22:34:13.172Z,1000.60
2019-02-20T22:35:13.171Z,1000.55
2019-02-20T22:36:13.147Z,1000.60
2019-02-20T22:37:13.152Z,1000.59
2019-02-20T22:38:14.978Z,1000.55
2019-02-20T22:39:13.126Z,1000.51
2019-02-20T22:40:13.141Z,1000.50
2019-02-20T22:41:13.093Z,1000.52
2019-02-20T22:42:13.101Z,1000.50
2019-02-20T22:43:13.074Z,1000.57
2019-02-20T22:44:13.116Z,1000.52
2019-02-20T22:45:13.079Z,1000.53
2019-02-20T22:46:13.043Z,1000.52
2019-02-20T22:47:13.046Z,1000.55
2019-02-20T22:48:13.023Z,1000.57
2019-02-20T22:49:13.009Z,1000.60
2019-02-20T22:50:14.738Z,1000.57
2019-02-20T22:51:12.989Z,1000.55
2019-02-20T22:52:13.023Z,1000.55
2019-02-20T22:53:12.968Z,1000.57
2019-02-20T22:54:12.960Z,1000.50
2019-02-20T22:55:12.951Z,1000.51
2019-02-20T22:56:12.941Z,1000.49
2019-02-20T22:57:12.929Z,1000.51
2019-02-20T22:58:12.937Z,1000.52
2019-02-20T22:59:12.904Z,1000.57
2019-02-20T23:00:12.902Z,1000.56
2019-02-20T23:01:12.885Z,1000.56
2019-02-20T23:02:12.884Z,1000.54
2019-02-20T23:03:12.882Z,1000.58
2019-02-20T23:04:12.868Z,1000.58
2019-02-20T23:05:12.845Z,1000.59
2019-02-20T23:06:12.831Z,1000.64
2019-02-20T23:07:12.829Z,1000.61
2019-02-20T23:08:12.839Z,1000.62
2019-02-20T23:09:12.808Z,1000.57
2019-02-20T23:10:12.789Z,1000.59
2019-02-20T23:11:12.777Z,1000.68
2019-02-20T23:12:12.783Z,1000.65
2019-02-20T23:13:12.776Z,1000.64
2019-02-20T23:14:12.762Z,1000.64
2019-02-20T23:15:12.739Z,1000.66
2019-02-20T23:16:12.766Z,1000.69
2019-02-20T23:17:12.714Z,1000.72
2019-02-20T23:18:12.724Z,1000.67
2019-02-20T23:19:12.700Z,1000.71
2019-02-20T23:20:12.684Z,1000.75
2019-02-20T23:21:12.673Z,1000.75
2019-02-20T23:22:12.722Z,1000.75
2019-02-20T23:23:12.674Z,1000.73
2019-02-20T23:24:12.658Z,1000.72
2019-02-20T23:25:12.640Z,1000.73
2019-02-20T23:26:12.643Z,1000.72
2019-02-20T23:27:12.625Z,1000.76
2019-02-20T23:28:12.625Z,1000.78
2019-02-20T23:29:12.613Z,1000.77
2019-02-20T23:30:13.343Z,1000.80
2019-02-20T23:31:12.581Z,1000.80
2019-02-20T23:32:12.582Z,1000.80
2019-02-20T23:33:12.579Z,1000.78
2019-02-20T23:34:12.549Z,1000.80
2019-02-20T23:35:12.540Z,1000.85
2019-02-20T23:36:13.868Z,1000.80
2019-02-20T23:37:34.551Z,1000.81
2019-02-20T23:38:12.505Z,1000.87
2019-02-20T23:39:12.483Z,1000.84
2019-02-20T23:40:12.473Z,1000.84
2019-02-20T23:41:12.464Z,1000.85
2019-02-20T23:42:12.459Z,1000.87
2019-02-20T23:43:12.457Z,1000.84
2019-02-20T23:44:12.431Z,1000.87
2019-02-20T23:45:12.427Z,1000.83
2019-02-20T23:46:12.417Z,1000.83
2019-02-20T23:47:12.410Z,1000.85
2019-02-20T23:48:12.479Z,1000.85
2019-02-20T23:49:12.380Z,1000.86
2019-02-20T23:50:12.385Z,1000.91
2019-02-20T23:51:12.370Z,1000.92
2019-02-20T23:52:12.351Z,1000.92
2019-02-20T23:53:12.340Z,1000.96
2019-02-20T23:54:12.349Z,1000.99
2019-02-20T23:55:12.322Z,1000.95
2019-02-20T23:56:12.307Z,1000.97
2019-02-20T23:57:12.314Z,1000.98
2019-02-20T23:58:12.357Z,1001.02
2019-02-20T23:59:13.930Z,1001.05
